sensor_id;sensor_type;location;lat;lon;timestamp;P1;durP1;ratioP1;P2;durP2;ratioP2
5285;SDS011;2665;53.112;7.358;2023-06-22T00:01:51;24.57;;;15.67;;
5285;SDS011;2665;53.112;7.358;2023-06-22T00:04:17;28.43;;;15.43;;
5285;SDS011;2665;53.112;7.358;2023-06-22T00:06:43;21.33;;;14.60;;
5285;SDS011;2665;53.112;7.358;2023-06-22T00:09:09;24.70;;;14.60;;
5285;SDS011;2665;53.112;7.358;2023-06-22T00:11:36;18.77;;;12.70;;
5285;SDS011;2665;53.112;7.358;2023-06-22T00:14:02;22.43;;;14.27;;
5285;SDS011;2665;53.112;7.358;2023-06-22T00:16:28;23.83;;;14.80;;
5285;SDS011;2665;53.112;7.358;2023-06-22T00:18:54;22.47;;;13.53;;
5285;SDS011;2665;53.112;7.358;2023-06-22T00:21:20;19.23;;;13.60;;
5285;SDS011;2665;53.112;7.358;2023-06-22T00:23:46;22.93;;;14.13;;
5285;SDS011;2665;53.112;7.358;2023-06-22T00:26:13;20.17;;;12.93;;
5285;SDS011;2665;53.112;7.358;2023-06-22T00:28:39;17.57;;;12.40;;
5285;SDS011;2665;53.112;7.358;2023-06-22T00:31:05;20.67;;;13.60;;
5285;SDS011;2665;53.112;7.358;2023-06-22T00:33:31;21.40;;;13.70;;
5285;SDS011;2665;53.112;7.358;2023-06-22T00:35:57;22.43;;;14.73;;
5285;SDS011;2665;53.112;7.358;2023-06-22T00:38:23;22.20;;;14.73;;
5285;SDS011;2665;53.112;7.358;2023-06-22T00:40:49;19.40;;;13.73;;
5285;SDS011;2665;53.112;7.358;2023-06-22T00:43:15;21.57;;;13.93;;
5285;SDS011;2665;53.112;7.358;2023-06-22T00:45:41;21.30;;;13.17;;
5285;SDS011;2665;53.112;7.358;2023-06-22T00:48:07;20.10;;;12.43;;
5285;SDS011;2665;53.112;7.358;2023-06-22T00:50:34;17.70;;;11.13;;
5285;SDS011;2665;53.112;7.358;2023-06-22T00:53:01;19.47;;;12.40;;
5285;SDS011;2665;53.112;7.358;2023-06-22T00:55:33;17.53;;;11.60;;
5285;SDS011;2665;53.112;7.358;2023-06-22T00:58:00;22.50;;;14.17;;
5285;SDS011;2665;53.112;7.358;2023-06-22T01:00:27;24.30;;;15.23;;
5285;SDS011;2665;53.112;7.358;2023-06-22T01:02:53;25.30;;;15.10;;
5285;SDS011;2665;53.112;7.358;2023-06-22T01:05:20;22.80;;;14.10;;
5285;SDS011;2665;53.112;7.358;2023-06-22T01:07:56;19.97;;;12.77;;
5285;SDS011;2665;53.112;7.358;2023-06-22T01:10:30;13.47;;;8.97;;
5285;SDS011;2665;53.112;7.358;2023-06-22T01:13:01;6.20;;;5.50;;
5285;SDS011;2665;53.112;7.358;2023-06-22T01:15:28;13.80;;;8.03;;
5285;SDS011;2665;53.112;7.358;2023-06-22T01:17:56;9.97;;;6.93;;
5285;SDS011;2665;53.112;7.358;2023-06-22T01:20:23;10.10;;;7.17;;
5285;SDS011;2665;53.112;7.358;2023-06-22T01:25:28;12.33;;;6.67;;
5285;SDS011;2665;53.112;7.358;2023-06-22T01:28:04;8.73;;;6.13;;
5285;SDS011;2665;53.112;7.358;2023-06-22T01:30:30;8.87;;;6.73;;
5285;SDS011;2665;53.112;7.358;2023-06-22T01:32:59;8.13;;;6.60;;
5285;SDS011;2665;53.112;7.358;2023-06-22T01:35:26;10.93;;;7.10;;
5285;SDS011;2665;53.112;7.358;2023-06-22T01:37:52;5.87;;;4.70;;
5285;SDS011;2665;53.112;7.358;2023-06-22T01:40:18;6.07;;;4.47;;
5285;SDS011;2665;53.112;7.358;2023-06-22T01:42:45;7.67;;;5.30;;
5285;SDS011;2665;53.112;7.358;2023-06-22T01:45:11;9.30;;;6.57;;
5285;SDS011;2665;53.112;7.358;2023-06-22T01:47:38;13.40;;;9.30;;
5285;SDS011;2665;53.112;7.358;2023-06-22T01:50:05;13.30;;;8.90;;
5285;SDS011;2665;53.112;7.358;2023-06-22T01:52:31;21.37;;;9.90;;
5285;SDS011;2665;53.112;7.358;2023-06-22T01:54:59;14.80;;;10.37;;
5285;SDS011;2665;53.112;7.358;2023-06-22T01:57:25;14.90;;;11.00;;
5285;SDS011;2665;53.112;7.358;2023-06-22T01:59:54;13.90;;;10.17;;
5285;SDS011;2665;53.112;7.358;2023-06-22T02:02:22;15.10;;;10.70;;
5285;SDS011;2665;53.112;7.358;2023-06-22T02:04:58;14.13;;;10.93;;
5285;SDS011;2665;53.112;7.358;2023-06-22T02:07:27;12.77;;;10.80;;
5285;SDS011;2665;53.112;7.358;2023-06-22T02:09:54;20.43;;;12.70;;
5285;SDS011;2665;53.112;7.358;2023-06-22T02:12:21;15.87;;;12.13;;
5285;SDS011;2665;53.112;7.358;2023-06-22T02:14:48;18.37;;;11.80;;
5285;SDS011;2665;53.112;7.358;2023-06-22T02:17:14;14.93;;;10.83;;
5285;SDS011;2665;53.112;7.358;2023-06-22T02:19:41;18.47;;;11.90;;
5285;SDS011;2665;53.112;7.358;2023-06-22T02:22:07;16.60;;;9.90;;
5285;SDS011;2665;53.112;7.358;2023-06-22T02:24:33;12.60;;;9.17;;
5285;SDS011;2665;53.112;7.358;2023-06-22T02:26:59;15.03;;;9.00;;
5285;SDS011;2665;53.112;7.358;2023-06-22T02:29:25;12.17;;;9.23;;
5285;SDS011;2665;53.112;7.358;2023-06-22T02:31:52;17.60;;;10.23;;
5285;SDS011;2665;53.112;7.358;2023-06-22T02:34:18;15.37;;;9.70;;
5285;SDS011;2665;53.112;7.358;2023-06-22T02:36:45;14.37;;;11.10;;
5285;SDS011;2665;53.112;7.358;2023-06-22T02:39:24;15.30;;;10.57;;
5285;SDS011;2665;53.112;7.358;2023-06-22T02:41:51;13.20;;;9.30;;
5285;SDS011;2665;53.112;7.358;2023-06-22T02:44:17;21.23;;;9.73;;
5285;SDS011;2665;53.112;7.358;2023-06-22T02:46:44;18.80;;;12.13;;
5285;SDS011;2665;53.112;7.358;2023-06-22T02:49:10;14.77;;;9.90;;
5285;SDS011;2665;53.112;7.358;2023-06-22T02:51:38;14.30;;;10.13;;
5285;SDS011;2665;53.112;7.358;2023-06-22T02:54:05;12.53;;;9.23;;
5285;SDS011;2665;53.112;7.358;2023-06-22T02:56:31;10.63;;;8.70;;
5285;SDS011;2665;53.112;7.358;2023-06-22T02:58:57;14.53;;;10.60;;
5285;SDS011;2665;53.112;7.358;2023-06-22T03:01:27;12.30;;;9.77;;
5285;SDS011;2665;53.112;7.358;2023-06-22T03:03:55;13.73;;;10.47;;
5285;SDS011;2665;53.112;7.358;2023-06-22T03:06:21;15.37;;;11.33;;
5285;SDS011;2665;53.112;7.358;2023-06-22T03:08:48;17.57;;;11.40;;
5285;SDS011;2665;53.112;7.358;2023-06-22T03:11:15;17.63;;;12.17;;
5285;SDS011;2665;53.112;7.358;2023-06-22T03:13:41;13.70;;;10.60;;
5285;SDS011;2665;53.112;7.358;2023-06-22T03:16:07;22.33;;;9.40;;
5285;SDS011;2665;53.112;7.358;2023-06-22T03:18:33;12.17;;;9.53;;
5285;SDS011;2665;53.112;7.358;2023-06-22T03:20:59;10.03;;;7.53;;
5285;SDS011;2665;53.112;7.358;2023-06-22T03:23:27;10.50;;;8.07;;
5285;SDS011;2665;53.112;7.358;2023-06-22T03:25:53;9.60;;;6.90;;
5285;SDS011;2665;53.112;7.358;2023-06-22T03:28:20;9.57;;;7.67;;
5285;SDS011;2665;53.112;7.358;2023-06-22T03:30:47;17.67;;;8.90;;
5285;SDS011;2665;53.112;7.358;2023-06-22T03:33:13;10.03;;;7.10;;
5285;SDS011;2665;53.112;7.358;2023-06-22T03:35:39;9.93;;;6.70;;
5285;SDS011;2665;53.112;7.358;2023-06-22T03:38:05;8.13;;;6.53;;
5285;SDS011;2665;53.112;7.358;2023-06-22T03:40:31;12.20;;;7.00;;
5285;SDS011;2665;53.112;7.358;2023-06-22T03:42:57;9.20;;;6.33;;
5285;SDS011;2665;53.112;7.358;2023-06-22T03:45:23;9.60;;;7.83;;
5285;SDS011;2665;53.112;7.358;2023-06-22T03:47:49;14.70;;;7.80;;
5285;SDS011;2665;53.112;7.358;2023-06-22T03:50:15;17.37;;;8.63;;
5285;SDS011;2665;53.112;7.358;2023-06-22T03:52:41;9.37;;;6.87;;
5285;SDS011;2665;53.112;7.358;2023-06-22T03:55:07;9.53;;;6.60;;
5285;SDS011;2665;53.112;7.358;2023-06-22T03:57:33;9.07;;;6.37;;
5285;SDS011;2665;53.112;7.358;2023-06-22T04:00:00;9.07;;;7.40;;
5285;SDS011;2665;53.112;7.358;2023-06-22T04:02:29;9.77;;;7.93;;
5285;SDS011;2665;53.112;7.358;2023-06-22T04:04:55;9.87;;;7.40;;
5285;SDS011;2665;53.112;7.358;2023-06-22T04:07:21;10.27;;;8.10;;
5285;SDS011;2665;53.112;7.358;2023-06-22T04:09:47;12.30;;;8.23;;
5285;SDS011;2665;53.112;7.358;2023-06-22T04:12:13;12.50;;;8.63;;
5285;SDS011;2665;53.112;7.358;2023-06-22T04:14:39;14.40;;;10.17;;
5285;SDS011;2665;53.112;7.358;2023-06-22T04:17:05;21.43;;;11.57;;
5285;SDS011;2665;53.112;7.358;2023-06-22T04:19:31;20.13;;;11.17;;
5285;SDS011;2665;53.112;7.358;2023-06-22T04:21:57;19.40;;;12.90;;
5285;SDS011;2665;53.112;7.358;2023-06-22T04:24:23;16.80;;;12.63;;
5285;SDS011;2665;53.112;7.358;2023-06-22T04:26:49;15.50;;;11.37;;
5285;SDS011;2665;53.112;7.358;2023-06-22T04:29:19;14.73;;;10.90;;
5285;SDS011;2665;53.112;7.358;2023-06-22T04:31:45;14.33;;;10.50;;
5285;SDS011;2665;53.112;7.358;2023-06-22T04:34:15;18.23;;;12.50;;
5285;SDS011;2665;53.112;7.358;2023-06-22T04:36:41;17.00;;;12.33;;
5285;SDS011;2665;53.112;7.358;2023-06-22T04:39:08;19.93;;;13.13;;
5285;SDS011;2665;53.112;7.358;2023-06-22T04:41:35;23.60;;;15.20;;
5285;SDS011;2665;53.112;7.358;2023-06-22T04:44:11;26.30;;;16.67;;
5285;SDS011;2665;53.112;7.358;2023-06-22T04:46:38;23.00;;;14.70;;
5285;SDS011;2665;53.112;7.358;2023-06-22T04:49:07;22.27;;;15.13;;
5285;SDS011;2665;53.112;7.358;2023-06-22T04:51:40;26.20;;;15.13;;
5285;SDS011;2665;53.112;7.358;2023-06-22T04:54:06;20.27;;;13.83;;
5285;SDS011;2665;53.112;7.358;2023-06-22T04:56:32;21.50;;;14.37;;
5285;SDS011;2665;53.112;7.358;2023-06-22T04:58:58;20.63;;;14.07;;
5285;SDS011;2665;53.112;7.358;2023-06-22T05:01:25;23.20;;;15.40;;
5285;SDS011;2665;53.112;7.358;2023-06-22T05:03:51;29.67;;;15.50;;
5285;SDS011;2665;53.112;7.358;2023-06-22T05:06:22;23.00;;;14.03;;
5285;SDS011;2665;53.112;7.358;2023-06-22T05:08:52;25.10;;;15.90;;
5285;SDS011;2665;53.112;7.358;2023-06-22T05:11:22;22.03;;;16.10;;
5285;SDS011;2665;53.112;7.358;2023-06-22T05:13:48;24.43;;;14.20;;
5285;SDS011;2665;53.112;7.358;2023-06-22T05:16:14;21.30;;;14.77;;
5285;SDS011;2665;53.112;7.358;2023-06-22T05:18:40;24.53;;;17.77;;
5285;SDS011;2665;53.112;7.358;2023-06-22T05:21:06;22.57;;;15.60;;
5285;SDS011;2665;53.112;7.358;2023-06-22T05:23:33;23.80;;;15.30;;
5285;SDS011;2665;53.112;7.358;2023-06-22T05:25:59;23.87;;;16.53;;
5285;SDS011;2665;53.112;7.358;2023-06-22T05:28:25;24.37;;;17.53;;
5285;SDS011;2665;53.112;7.358;2023-06-22T05:30:51;26.67;;;16.07;;
5285;SDS011;2665;53.112;7.358;2023-06-22T05:33:17;26.30;;;16.20;;
5285;SDS011;2665;53.112;7.358;2023-06-22T05:35:43;21.47;;;15.43;;
5285;SDS011;2665;53.112;7.358;2023-06-22T05:38:09;24.00;;;16.03;;
5285;SDS011;2665;53.112;7.358;2023-06-22T05:40:35;20.03;;;14.97;;
5285;SDS011;2665;53.112;7.358;2023-06-22T05:43:01;22.93;;;15.33;;
5285;SDS011;2665;53.112;7.358;2023-06-22T05:45:27;22.03;;;14.97;;
5285;SDS011;2665;53.112;7.358;2023-06-22T05:47:53;23.17;;;15.40;;
5285;SDS011;2665;53.112;7.358;2023-06-22T05:50:19;20.73;;;14.17;;
5285;SDS011;2665;53.112;7.358;2023-06-22T05:52:45;22.63;;;16.10;;
5285;SDS011;2665;53.112;7.358;2023-06-22T05:55:11;19.60;;;13.67;;
5285;SDS011;2665;53.112;7.358;2023-06-22T05:57:37;20.80;;;13.87;;
5285;SDS011;2665;53.112;7.358;2023-06-22T06:00:04;16.30;;;11.93;;
5285;SDS011;2665;53.112;7.358;2023-06-22T06:02:35;21.70;;;14.90;;
5285;SDS011;2665;53.112;7.358;2023-06-22T06:05:01;17.70;;;13.60;;
5285;SDS011;2665;53.112;7.358;2023-06-22T06:07:27;22.10;;;13.80;;
5285;SDS011;2665;53.112;7.358;2023-06-22T06:09:54;17.50;;;12.20;;
5285;SDS011;2665;53.112;7.358;2023-06-22T06:12:20;17.90;;;13.50;;
5285;SDS011;2665;53.112;7.358;2023-06-22T06:14:46;16.60;;;13.47;;
5285;SDS011;2665;53.112;7.358;2023-06-22T06:17:12;19.47;;;14.00;;
5285;SDS011;2665;53.112;7.358;2023-06-22T06:19:38;18.40;;;12.30;;
5285;SDS011;2665;53.112;7.358;2023-06-22T06:22:04;16.77;;;12.03;;
5285;SDS011;2665;53.112;7.358;2023-06-22T06:24:31;17.30;;;13.10;;
5285;SDS011;2665;53.112;7.358;2023-06-22T06:26:57;13.67;;;10.20;;
5285;SDS011;2665;53.112;7.358;2023-06-22T06:29:23;15.13;;;11.20;;
5285;SDS011;2665;53.112;7.358;2023-06-22T06:31:49;16.20;;;10.87;;
5285;SDS011;2665;53.112;7.358;2023-06-22T06:34:15;15.00;;;10.73;;
5285;SDS011;2665;53.112;7.358;2023-06-22T06:36:41;13.60;;;9.70;;
5285;SDS011;2665;53.112;7.358;2023-06-22T06:39:07;12.70;;;10.63;;
5285;SDS011;2665;53.112;7.358;2023-06-22T06:41:34;15.30;;;10.10;;
5285;SDS011;2665;53.112;7.358;2023-06-22T06:44:00;14.30;;;10.20;;
5285;SDS011;2665;53.112;7.358;2023-06-22T06:46:26;16.60;;;11.73;;
5285;SDS011;2665;53.112;7.358;2023-06-22T06:48:53;10.77;;;9.53;;
5285;SDS011;2665;53.112;7.358;2023-06-22T06:51:19;15.20;;;11.67;;
5285;SDS011;2665;53.112;7.358;2023-06-22T06:53:45;10.60;;;8.27;;
5285;SDS011;2665;53.112;7.358;2023-06-22T06:56:11;13.90;;;9.77;;
5285;SDS011;2665;53.112;7.358;2023-06-22T06:58:37;12.40;;;9.07;;
5285;SDS011;2665;53.112;7.358;2023-06-22T07:01:03;14.67;;;10.73;;
5285;SDS011;2665;53.112;7.358;2023-06-22T07:03:29;13.60;;;10.40;;
5285;SDS011;2665;53.112;7.358;2023-06-22T07:05:55;16.23;;;11.83;;
5285;SDS011;2665;53.112;7.358;2023-06-22T07:08:21;14.63;;;11.10;;
5285;SDS011;2665;53.112;7.358;2023-06-22T07:10:47;14.43;;;10.80;;
5285;SDS011;2665;53.112;7.358;2023-06-22T07:13:13;15.70;;;10.70;;
5285;SDS011;2665;53.112;7.358;2023-06-22T07:15:39;11.47;;;9.43;;
5285;SDS011;2665;53.112;7.358;2023-06-22T07:18:05;14.20;;;9.53;;
5285;SDS011;2665;53.112;7.358;2023-06-22T07:20:31;13.47;;;9.43;;
5285;SDS011;2665;53.112;7.358;2023-06-22T07:22:57;15.87;;;10.37;;
5285;SDS011;2665;53.112;7.358;2023-06-22T07:25:23;19.23;;;10.57;;
5285;SDS011;2665;53.112;7.358;2023-06-22T07:30:24;12.80;;;9.70;;
5285;SDS011;2665;53.112;7.358;2023-06-22T07:32:51;12.43;;;9.67;;
5285;SDS011;2665;53.112;7.358;2023-06-22T07:35:17;10.10;;;7.97;;
5285;SDS011;2665;53.112;7.358;2023-06-22T07:37:44;11.63;;;8.47;;
5285;SDS011;2665;53.112;7.358;2023-06-22T07:40:10;13.50;;;9.27;;
5285;SDS011;2665;53.112;7.358;2023-06-22T07:42:36;15.63;;;10.23;;
5285;SDS011;2665;53.112;7.358;2023-06-22T07:45:02;15.97;;;8.87;;
5285;SDS011;2665;53.112;7.358;2023-06-22T07:47:29;13.17;;;9.20;;
5285;SDS011;2665;53.112;7.358;2023-06-22T07:49:55;11.77;;;8.20;;
5285;SDS011;2665;53.112;7.358;2023-06-22T07:52:23;12.33;;;8.67;;
5285;SDS011;2665;53.112;7.358;2023-06-22T07:54:49;10.37;;;7.90;;
5285;SDS011;2665;53.112;7.358;2023-06-22T07:57:15;14.63;;;9.20;;
5285;SDS011;2665;53.112;7.358;2023-06-22T07:59:41;15.50;;;9.60;;
5285;SDS011;2665;53.112;7.358;2023-06-22T08:02:07;11.10;;;8.00;;
5285;SDS011;2665;53.112;7.358;2023-06-22T08:04:34;14.07;;;9.63;;
5285;SDS011;2665;53.112;7.358;2023-06-22T08:07:01;12.87;;;8.90;;
5285;SDS011;2665;53.112;7.358;2023-06-22T08:09:30;14.07;;;8.87;;
5285;SDS011;2665;53.112;7.358;2023-06-22T08:11:57;10.50;;;7.13;;
5285;SDS011;2665;53.112;7.358;2023-06-22T08:14:23;9.90;;;6.77;;
5285;SDS011;2665;53.112;7.358;2023-06-22T08:16:49;10.20;;;7.37;;
5285;SDS011;2665;53.112;7.358;2023-06-22T08:19:15;16.33;;;8.47;;
5285;SDS011;2665;53.112;7.358;2023-06-22T08:21:42;13.43;;;8.23;;
5285;SDS011;2665;53.112;7.358;2023-06-22T08:24:08;13.00;;;8.37;;
5285;SDS011;2665;53.112;7.358;2023-06-22T08:26:34;12.43;;;8.13;;
5285;SDS011;2665;53.112;7.358;2023-06-22T08:29:02;11.60;;;7.47;;
5285;SDS011;2665;53.112;7.358;2023-06-22T08:31:28;12.83;;;8.00;;
5285;SDS011;2665;53.112;7.358;2023-06-22T08:33:54;10.43;;;7.30;;
5285;SDS011;2665;53.112;7.358;2023-06-22T08:36:20;11.73;;;7.70;;
5285;SDS011;2665;53.112;7.358;2023-06-22T08:38:46;11.90;;;7.00;;
5285;SDS011;2665;53.112;7.358;2023-06-22T08:41:16;9.60;;;6.50;;
5285;SDS011;2665;53.112;7.358;2023-06-22T08:43:43;9.33;;;6.23;;
5285;SDS011;2665;53.112;7.358;2023-06-22T08:46:09;12.93;;;7.53;;
5285;SDS011;2665;53.112;7.358;2023-06-22T08:48:35;8.80;;;7.13;;
5285;SDS011;2665;53.112;7.358;2023-06-22T08:51:01;13.83;;;6.53;;
5285;SDS011;2665;53.112;7.358;2023-06-22T08:53:28;13.43;;;7.40;;
5285;SDS011;2665;53.112;7.358;2023-06-22T08:55:53;11.50;;;7.27;;
5285;SDS011;2665;53.112;7.358;2023-06-22T08:58:19;8.80;;;7.00;;
5285;SDS011;2665;53.112;7.358;2023-06-22T09:00:46;7.30;;;5.37;;
5285;SDS011;2665;53.112;7.358;2023-06-22T09:03:12;7.60;;;5.70;;
5285;SDS011;2665;53.112;7.358;2023-06-22T09:05:38;9.60;;;5.63;;
5285;SDS011;2665;53.112;7.358;2023-06-22T09:08:04;8.00;;;6.03;;
5285;SDS011;2665;53.112;7.358;2023-06-22T09:10:30;11.80;;;5.40;;
5285;SDS011;2665;53.112;7.358;2023-06-22T09:12:56;7.03;;;5.07;;
5285;SDS011;2665;53.112;7.358;2023-06-22T09:15:22;8.57;;;6.07;;
5285;SDS011;2665;53.112;7.358;2023-06-22T09:17:48;9.00;;;5.53;;
5285;SDS011;2665;53.112;7.358;2023-06-22T09:20:13;8.17;;;5.03;;
5285;SDS011;2665;53.112;7.358;2023-06-22T09:22:39;6.60;;;5.60;;
5285;SDS011;2665;53.112;7.358;2023-06-22T09:25:05;8.93;;;6.40;;
5285;SDS011;2665;53.112;7.358;2023-06-22T09:27:32;11.60;;;6.53;;
5285;SDS011;2665;53.112;7.358;2023-06-22T09:29:57;6.53;;;5.17;;
5285;SDS011;2665;53.112;7.358;2023-06-22T09:32:23;11.40;;;6.33;;
5285;SDS011;2665;53.112;7.358;2023-06-22T09:34:50;8.87;;;5.53;;
5285;SDS011;2665;53.112;7.358;2023-06-22T09:37:16;13.53;;;6.60;;
5285;SDS011;2665;53.112;7.358;2023-06-22T09:39:41;9.20;;;5.87;;
5285;SDS011;2665;53.112;7.358;2023-06-22T09:42:07;10.83;;;6.70;;
5285;SDS011;2665;53.112;7.358;2023-06-22T09:44:33;7.53;;;6.60;;
5285;SDS011;2665;53.112;7.358;2023-06-22T09:46:58;7.30;;;5.67;;
5285;SDS011;2665;53.112;7.358;2023-06-22T09:49:24;8.23;;;6.27;;
5285;SDS011;2665;53.112;7.358;2023-06-22T09:51:50;10.17;;;6.00;;
5285;SDS011;2665;53.112;7.358;2023-06-22T09:54:17;9.07;;;6.77;;
5285;SDS011;2665;53.112;7.358;2023-06-22T09:56:44;7.47;;;5.17;;
5285;SDS011;2665;53.112;7.358;2023-06-22T09:59:09;9.30;;;7.13;;
5285;SDS011;2665;53.112;7.358;2023-06-22T10:01:35;9.10;;;6.57;;
5285;SDS011;2665;53.112;7.358;2023-06-22T10:04:01;6.53;;;5.40;;
5285;SDS011;2665;53.112;7.358;2023-06-22T10:06:27;10.50;;;7.50;;
5285;SDS011;2665;53.112;7.358;2023-06-22T10:08:53;7.43;;;5.50;;
5285;SDS011;2665;53.112;7.358;2023-06-22T10:11:18;9.40;;;6.17;;
5285;SDS011;2665;53.112;7.358;2023-06-22T10:13:44;9.07;;;6.07;;
5285;SDS011;2665;53.112;7.358;2023-06-22T10:16:10;8.90;;;5.53;;
5285;SDS011;2665;53.112;7.358;2023-06-22T10:18:35;6.83;;;5.00;;
5285;SDS011;2665;53.112;7.358;2023-06-22T10:21:01;8.70;;;5.23;;
5285;SDS011;2665;53.112;7.358;2023-06-22T10:23:27;7.20;;;5.23;;
5285;SDS011;2665;53.112;7.358;2023-06-22T10:25:52;7.03;;;5.47;;
5285;SDS011;2665;53.112;7.358;2023-06-22T10:28:18;7.60;;;4.80;;
5285;SDS011;2665;53.112;7.358;2023-06-22T10:30:44;8.77;;;5.47;;
5285;SDS011;2665;53.112;7.358;2023-06-22T10:33:10;7.47;;;4.67;;
5285;SDS011;2665;53.112;7.358;2023-06-22T10:35:37;9.60;;;5.17;;
5285;SDS011;2665;53.112;7.358;2023-06-22T10:38:03;5.67;;;4.50;;
5285;SDS011;2665;53.112;7.358;2023-06-22T10:40:29;5.97;;;4.70;;
5285;SDS011;2665;53.112;7.358;2023-06-22T10:42:55;8.70;;;4.20;;
5285;SDS011;2665;53.112;7.358;2023-06-22T10:45:20;7.57;;;4.30;;
5285;SDS011;2665;53.112;7.358;2023-06-22T10:47:46;9.43;;;5.03;;
5285;SDS011;2665;53.112;7.358;2023-06-22T10:50:11;7.77;;;4.80;;
5285;SDS011;2665;53.112;7.358;2023-06-22T10:52:38;6.60;;;3.87;;
5285;SDS011;2665;53.112;7.358;2023-06-22T10:55:04;4.90;;;4.37;;
5285;SDS011;2665;53.112;7.358;2023-06-22T10:57:30;5.33;;;3.33;;
5285;SDS011;2665;53.112;7.358;2023-06-22T10:59:55;5.47;;;4.37;;
5285;SDS011;2665;53.112;7.358;2023-06-22T11:02:21;5.80;;;4.17;;
5285;SDS011;2665;53.112;7.358;2023-06-22T11:04:49;7.97;;;4.83;;
5285;SDS011;2665;53.112;7.358;2023-06-22T11:07:15;4.80;;;4.30;;
5285;SDS011;2665;53.112;7.358;2023-06-22T11:09:42;7.53;;;4.87;;
5285;SDS011;2665;53.112;7.358;2023-06-22T11:12:08;6.73;;;5.00;;
5285;SDS011;2665;53.112;7.358;2023-06-22T11:14:34;6.90;;;4.97;;
5285;SDS011;2665;53.112;7.358;2023-06-22T11:16:59;6.00;;;5.00;;
5285;SDS011;2665;53.112;7.358;2023-06-22T11:19:25;6.13;;;4.57;;
5285;SDS011;2665;53.112;7.358;2023-06-22T11:21:51;5.90;;;4.20;;
5285;SDS011;2665;53.112;7.358;2023-06-22T11:24:17;5.60;;;4.60;;
5285;SDS011;2665;53.112;7.358;2023-06-22T11:26:43;7.23;;;4.10;;
5285;SDS011;2665;53.112;7.358;2023-06-22T11:29:08;5.27;;;3.53;;
5285;SDS011;2665;53.112;7.358;2023-06-22T11:31:34;5.40;;;3.43;;
5285;SDS011;2665;53.112;7.358;2023-06-22T11:34:01;5.37;;;4.67;;
5285;SDS011;2665;53.112;7.358;2023-06-22T11:36:26;8.40;;;4.53;;
5285;SDS011;2665;53.112;7.358;2023-06-22T11:38:52;4.80;;;3.50;;
5285;SDS011;2665;53.112;7.358;2023-06-22T11:41:18;6.33;;;4.07;;
5285;SDS011;2665;53.112;7.358;2023-06-22T11:43:44;5.17;;;3.20;;
5285;SDS011;2665;53.112;7.358;2023-06-22T11:46:09;4.47;;;3.60;;
5285;SDS011;2665;53.112;7.358;2023-06-22T11:48:35;6.90;;;4.13;;
5285;SDS011;2665;53.112;7.358;2023-06-22T11:51:01;5.60;;;4.00;;
5285;SDS011;2665;53.112;7.358;2023-06-22T11:53:28;6.00;;;3.70;;
5285;SDS011;2665;53.112;7.358;2023-06-22T11:55:54;4.47;;;3.07;;
5285;SDS011;2665;53.112;7.358;2023-06-22T11:58:20;5.13;;;3.40;;
5285;SDS011;2665;53.112;7.358;2023-06-22T12:00:46;4.77;;;2.83;;
5285;SDS011;2665;53.112;7.358;2023-06-22T12:03:11;8.70;;;3.47;;
5285;SDS011;2665;53.112;7.358;2023-06-22T12:05:38;5.70;;;3.13;;
5285;SDS011;2665;53.112;7.358;2023-06-22T12:08:03;6.03;;;3.73;;
5285;SDS011;2665;53.112;7.358;2023-06-22T12:10:29;5.63;;;3.47;;
5285;SDS011;2665;53.112;7.358;2023-06-22T12:12:56;4.30;;;3.73;;
5285;SDS011;2665;53.112;7.358;2023-06-22T12:15:25;4.97;;;2.73;;
5285;SDS011;2665;53.112;7.358;2023-06-22T12:17:51;5.23;;;3.70;;
5285;SDS011;2665;53.112;7.358;2023-06-22T12:20:17;5.33;;;3.87;;
5285;SDS011;2665;53.112;7.358;2023-06-22T12:22:43;6.63;;;5.10;;
5285;SDS011;2665;53.112;7.358;2023-06-22T12:25:09;6.00;;;4.97;;
5285;SDS011;2665;53.112;7.358;2023-06-22T12:27:35;8.37;;;4.87;;
5285;SDS011;2665;53.112;7.358;2023-06-22T12:30:01;7.17;;;4.63;;
5285;SDS011;2665;53.112;7.358;2023-06-22T12:32:27;7.20;;;5.13;;
5285;SDS011;2665;53.112;7.358;2023-06-22T12:34:53;8.00;;;5.50;;
5285;SDS011;2665;53.112;7.358;2023-06-22T12:37:18;7.27;;;5.83;;
5285;SDS011;2665;53.112;7.358;2023-06-22T12:39:44;6.00;;;5.20;;
5285;SDS011;2665;53.112;7.358;2023-06-22T12:42:10;6.40;;;5.03;;
5285;SDS011;2665;53.112;7.358;2023-06-22T12:44:37;8.60;;;5.93;;
5285;SDS011;2665;53.112;7.358;2023-06-22T12:47:04;7.07;;;5.23;;
5285;SDS011;2665;53.112;7.358;2023-06-22T12:49:30;5.40;;;4.47;;
5285;SDS011;2665;53.112;7.358;2023-06-22T12:51:55;10.20;;;6.73;;
5285;SDS011;2665;53.112;7.358;2023-06-22T12:54:21;8.60;;;6.97;;
5285;SDS011;2665;53.112;7.358;2023-06-22T12:56:47;9.63;;;6.43;;
5285;SDS011;2665;53.112;7.358;2023-06-22T12:59:12;8.90;;;6.43;;
5285;SDS011;2665;53.112;7.358;2023-06-22T13:01:38;7.00;;;5.33;;
5285;SDS011;2665;53.112;7.358;2023-06-22T13:04:04;8.60;;;6.40;;
5285;SDS011;2665;53.112;7.358;2023-06-22T13:06:30;8.73;;;5.87;;
5285;SDS011;2665;53.112;7.358;2023-06-22T13:08:55;7.27;;;5.73;;
5285;SDS011;2665;53.112;7.358;2023-06-22T13:11:21;8.00;;;6.37;;
5285;SDS011;2665;53.112;7.358;2023-06-22T13:13:47;6.80;;;5.93;;
5285;SDS011;2665;53.112;7.358;2023-06-22T13:16:12;8.97;;;5.43;;
5285;SDS011;2665;53.112;7.358;2023-06-22T13:18:38;7.13;;;4.97;;
5285;SDS011;2665;53.112;7.358;2023-06-22T13:21:03;6.60;;;4.60;;
5285;SDS011;2665;53.112;7.358;2023-06-22T13:23:30;8.60;;;6.20;;
5285;SDS011;2665;53.112;7.358;2023-06-22T13:25:55;6.87;;;5.80;;
5285;SDS011;2665;53.112;7.358;2023-06-22T13:28:22;8.77;;;5.80;;
5285;SDS011;2665;53.112;7.358;2023-06-22T13:30:48;7.93;;;5.93;;
5285;SDS011;2665;53.112;7.358;2023-06-22T13:33:14;7.80;;;6.57;;
5285;SDS011;2665;53.112;7.358;2023-06-22T13:35:40;9.00;;;6.20;;
5285;SDS011;2665;53.112;7.358;2023-06-22T13:38:07;8.30;;;6.83;;
5285;SDS011;2665;53.112;7.358;2023-06-22T13:40:34;8.40;;;5.90;;
5285;SDS011;2665;53.112;7.358;2023-06-22T13:42:59;5.10;;;4.60;;
5285;SDS011;2665;53.112;7.358;2023-06-22T13:45:25;7.87;;;4.80;;
5285;SDS011;2665;53.112;7.358;2023-06-22T13:47:51;8.70;;;6.30;;
5285;SDS011;2665;53.112;7.358;2023-06-22T13:50:17;8.30;;;6.60;;
5285;SDS011;2665;53.112;7.358;2023-06-22T13:52:42;6.73;;;5.87;;
5285;SDS011;2665;53.112;7.358;2023-06-22T13:55:08;7.33;;;5.90;;
5285;SDS011;2665;53.112;7.358;2023-06-22T13:57:34;7.73;;;5.87;;
5285;SDS011;2665;53.112;7.358;2023-06-22T14:00:01;9.30;;;5.73;;
5285;SDS011;2665;53.112;7.358;2023-06-22T14:02:27;6.00;;;5.03;;
5285;SDS011;2665;53.112;7.358;2023-06-22T14:04:53;7.63;;;5.00;;
5285;SDS011;2665;53.112;7.358;2023-06-22T14:07:19;7.00;;;4.80;;
5285;SDS011;2665;53.112;7.358;2023-06-22T14:09:45;6.73;;;4.37;;
5285;SDS011;2665;53.112;7.358;2023-06-22T14:12:11;6.90;;;4.43;;
5285;SDS011;2665;53.112;7.358;2023-06-22T14:14:37;7.27;;;5.33;;
5285;SDS011;2665;53.112;7.358;2023-06-22T14:17:04;7.43;;;5.10;;
5285;SDS011;2665;53.112;7.358;2023-06-22T14:19:30;7.30;;;5.17;;
5285;SDS011;2665;53.112;7.358;2023-06-22T14:21:56;7.40;;;5.00;;
5285;SDS011;2665;53.112;7.358;2023-06-22T14:24:22;6.30;;;5.20;;
5285;SDS011;2665;53.112;7.358;2023-06-22T14:26:48;7.00;;;5.00;;
5285;SDS011;2665;53.112;7.358;2023-06-22T14:29:14;6.23;;;4.90;;
5285;SDS011;2665;53.112;7.358;2023-06-22T14:31:39;5.83;;;5.23;;
5285;SDS011;2665;53.112;7.358;2023-06-22T14:34:05;5.80;;;4.87;;
5285;SDS011;2665;53.112;7.358;2023-06-22T14:36:31;6.87;;;4.70;;
5285;SDS011;2665;53.112;7.358;2023-06-22T14:38:57;6.63;;;4.97;;
5285;SDS011;2665;53.112;7.358;2023-06-22T14:41:22;5.03;;;4.50;;
5285;SDS011;2665;53.112;7.358;2023-06-22T14:43:51;8.33;;;6.20;;
5285;SDS011;2665;53.112;7.358;2023-06-22T14:46:20;5.30;;;4.80;;
5285;SDS011;2665;53.112;7.358;2023-06-22T14:48:45;7.33;;;5.03;;
5285;SDS011;2665;53.112;7.358;2023-06-22T14:51:11;6.37;;;4.67;;
5285;SDS011;2665;53.112;7.358;2023-06-22T14:53:37;4.93;;;4.23;;
5285;SDS011;2665;53.112;7.358;2023-06-22T14:56:03;9.60;;;5.73;;
5285;SDS011;2665;53.112;7.358;2023-06-22T14:58:32;8.03;;;4.57;;
5285;SDS011;2665;53.112;7.358;2023-06-22T15:01:02;5.27;;;4.20;;
5285;SDS011;2665;53.112;7.358;2023-06-22T15:03:29;6.50;;;4.03;;